createdAt,value
2023-01-03T00:02:19.612Z,82.45
2023-01-03T00:04:50.476Z,82.27
2023-01-03T00:07:34.246Z,82.28
2023-01-03T00:10:08.288Z,82.35
2023-01-03T00:12:38.857Z,82.06
2023-01-03T00:15:11.010Z,82.30
2023-01-03T00:17:41.391Z,82.29
2023-01-03T00:20:13.101Z,82.22
2023-01-03T00:22:43.474Z,82.32
2023-01-03T00:25:14.197Z,82.13
2023-01-03T00:27:44.561Z,82.29
2023-01-03T00:30:15.815Z,82.44
2023-01-03T00:32:46.490Z,82.29
2023-01-03T00:35:16.917Z,82.73
2023-01-03T00:37:47.854Z,82.79
2023-01-03T00:40:18.605Z,82.94
2023-01-03T00:43:07.120Z,82.87
2023-01-03T00:45:37.588Z,82.74
2023-01-03T00:48:08.365Z,82.73
2023-01-03T00:50:40.650Z,82.88
2023-01-03T00:53:11.530Z,82.97
2023-01-03T00:55:42.631Z,82.79
2023-01-03T00:58:13.027Z,82.78
2023-01-03T01:00:43.716Z,82.80
2023-01-03T01:03:17.840Z,82.85
2023-01-03T01:05:48.517Z,82.41
2023-01-03T01:08:19.181Z,82.55
2023-01-03T01:11:02.653Z,82.55
2023-01-03T01:13:34.239Z,82.45
2023-01-03T01:16:07.104Z,82.46
2023-01-03T01:18:38.648Z,82.59
2023-01-03T01:21:12.095Z,82.64
2023-01-03T01:23:43.708Z,82.69
2023-01-03T01:26:16.248Z,82.74
2023-01-03T01:28:46.993Z,82.45
2023-01-03T01:31:19.084Z,82.51
2023-01-03T01:33:49.590Z,82.33
2023-01-03T01:36:22.290Z,82.51
2023-01-03T01:38:57.911Z,82.87
2023-01-03T01:41:47.322Z,83.11
2023-01-03T01:44:54.643Z,83.17
2023-01-03T01:47:45.271Z,83.00
2023-01-03T01:50:21.873Z,82.85
2023-01-03T01:52:57.609Z,82.93
2023-01-03T01:55:31.503Z,82.87
2023-01-03T01:58:02.756Z,82.90
2023-01-03T02:00:33.420Z,82.80
2023-01-03T02:03:04.692Z,82.76
2023-01-03T02:05:38.216Z,83.03
2023-01-03T02:08:08.818Z,82.95
2023-01-03T02:10:52.620Z,83.10
2023-01-03T02:13:30.088Z,83.22
2023-01-03T02:16:13.089Z,83.31
2023-01-03T02:18:52.509Z,83.28
2023-01-03T02:21:57.211Z,83.40
2023-01-03T02:24:49.826Z,83.14
2023-01-03T02:27:50.197Z,83.19
2023-01-03T02:30:41.881Z,83.12
2023-01-03T02:33:24.998Z,83.28
2023-01-03T02:36:05.558Z,83.40
2023-01-03T02:38:48.647Z,83.42
2023-01-03T02:41:26.930Z,83.33
2023-01-03T02:44:01.145Z,83.43
2023-01-03T02:46:36.096Z,83.52
2023-01-03T02:49:11.464Z,83.25
2023-01-03T02:51:45.313Z,83.19
2023-01-03T02:54:20.070Z,83.27
2023-01-03T02:56:55.463Z,83.28
2023-01-03T02:59:31.710Z,83.02
2023-01-03T03:02:06.283Z,83.15
2023-01-03T03:04:39.364Z,83.23
2023-01-03T03:07:15.573Z,83.01
2023-01-03T03:09:59.778Z,82.88
2023-01-03T03:12:51.768Z,82.90
2023-01-03T03:15:26.281Z,83.07
2023-01-03T03:18:02.124Z,83.15
2023-01-03T03:20:50.126Z,83.04
2023-01-03T03:23:42.505Z,83.13
2023-01-03T03:26:17.490Z,83.27
2023-01-03T03:28:51.717Z,83.32
2023-01-03T03:31:26.080Z,83.38
2023-01-03T03:34:03.841Z,83.41
2023-01-03T03:36:40.823Z,83.32
2023-01-03T03:39:27.421Z,83.19
2023-01-03T03:42:23.123Z,83.28
2023-01-03T03:45:01.635Z,83.21
2023-01-03T03:47:44.138Z,83.13
2023-01-03T03:50:21.110Z,82.88
2023-01-03T03:52:58.113Z,82.80
2023-01-03T03:55:35.012Z,82.60
2023-01-03T03:58:09.125Z,82.57
2023-01-03T04:00:41.591Z,82.32
2023-01-03T04:03:13.542Z,82.43
2023-01-03T04:05:49.310Z,82.37
2023-01-03T04:08:20.014Z,82.09
2023-01-03T04:10:51.083Z,81.79
2023-01-03T04:13:21.658Z,81.87
2023-01-03T04:15:52.349Z,81.73
2023-01-03T04:18:22.680Z,81.67
2023-01-03T04:20:53.773Z,81.83
2023-01-03T04:23:25.380Z,81.92
2023-01-03T04:25:55.668Z,82.09
2023-01-03T04:28:26.072Z,81.97
2023-01-03T04:30:56.632Z,82.08
2023-01-03T04:33:27.284Z,81.71
2023-01-03T04:35:57.612Z,81.70
2023-01-03T04:38:28.247Z,81.77
2023-01-03T04:41:03.820Z,81.90
2023-01-03T04:43:52.148Z,81.70
2023-01-03T04:46:23.138Z,81.77
2023-01-03T04:48:53.525Z,81.62
2023-01-03T04:51:24.546Z,81.95
2023-01-03T04:53:55.648Z,81.94
2023-01-03T04:56:32.973Z,81.97
2023-01-03T04:59:03.719Z,82.16
2023-01-03T05:01:34.500Z,82.33
2023-01-03T05:04:05.130Z,82.07
2023-01-03T05:06:35.568Z,82.08
2023-01-03T05:09:06.256Z,82.01
2023-01-03T05:11:36.593Z,82.14
2023-01-03T05:14:10.766Z,81.98
2023-01-03T05:16:44.704Z,82.19
2023-01-03T05:19:15.604Z,82.25
2023-01-03T05:22:03.865Z,82.40
2023-01-03T05:24:50.738Z,82.38
2023-01-03T05:27:21.288Z,82.48
2023-01-03T05:29:54.276Z,82.53
2023-01-03T05:32:25.155Z,82.51
2023-01-03T05:34:56.175Z,82.46
2023-01-03T05:37:26.788Z,82.50
2023-01-03T05:39:57.076Z,82.49
2023-01-03T05:42:27.708Z,82.53
2023-01-03T05:44:58.601Z,82.25
2023-01-03T05:47:28.956Z,82.33
2023-01-03T05:49:59.638Z,82.22
2023-01-03T05:52:30.503Z,82.21
2023-01-03T05:55:01.436Z,82.37
2023-01-03T05:57:35.568Z,82.28
2023-01-03T06:00:08.595Z,82.36
2023-01-03T06:02:39.041Z,82.55
2023-01-03T06:05:10.832Z,82.84
2023-01-03T06:07:41.173Z,82.79
2023-01-03T06:10:12.602Z,82.86
2023-01-03T06:12:43.643Z,83.06
2023-01-03T06:15:14.200Z,82.80
2023-01-03T06:17:58.202Z,83.11
2023-01-03T06:20:30.395Z,83.15
2023-01-03T06:23:00.820Z,83.35
2023-01-03T06:25:31.168Z,83.53
2023-01-03T06:28:01.824Z,83.53
2023-01-03T06:30:32.498Z,83.54
2023-01-03T06:33:02.813Z,83.71
2023-01-03T06:35:33.100Z,83.91
2023-01-03T06:38:03.690Z,83.84
2023-01-03T06:40:38.201Z,83.89
2023-01-03T06:43:13.145Z,84.05
2023-01-03T06:46:02.801Z,84.20
2023-01-03T06:48:50.604Z,84.22
2023-01-03T06:51:40.569Z,84.19
2023-01-03T06:54:13.526Z,84.40
2023-01-03T06:56:43.785Z,84.62
2023-01-03T06:59:14.089Z,84.53
2023-01-03T07:01:45.016Z,84.58
2023-01-03T07:04:16.277Z,84.58
2023-01-03T07:06:46.865Z,84.60
2023-01-03T07:09:18.120Z,84.68
2023-01-03T07:11:48.590Z,84.61
2023-01-03T07:14:19.250Z,84.75
2023-01-03T07:16:50.497Z,84.79
2023-01-03T07:19:22.006Z,84.78
2023-01-03T07:21:52.327Z,84.84
2023-01-03T07:24:22.717Z,84.74
2023-01-03T07:26:53.081Z,84.82
2023-01-03T07:29:23.334Z,84.66
2023-01-03T07:31:53.697Z,84.60
2023-01-03T07:34:24.358Z,84.74
2023-01-03T07:36:54.963Z,84.84
2023-01-03T07:39:25.284Z,84.75
2023-01-03T07:42:13.534Z,84.68
2023-01-03T07:44:44.170Z,84.67
2023-01-03T07:47:14.561Z,84.78
2023-01-03T07:49:45.260Z,84.49
2023-01-03T07:52:15.922Z,84.45
2023-01-03T07:54:46.560Z,84.21
2023-01-03T07:57:18.211Z,84.12
2023-01-03T07:59:48.497Z,84.25
2023-01-03T08:02:20.303Z,84.26
2023-01-03T08:04:50.899Z,84.29
2023-01-03T08:07:21.732Z,84.33
2023-01-03T08:10:24.355Z,84.26
2023-01-03T08:13:14.085Z,84.44
2023-01-03T08:15:46.183Z,84.08
2023-01-03T08:18:17.008Z,83.90
2023-01-03T08:20:48.118Z,83.83
2023-01-03T08:23:18.839Z,83.76
2023-01-03T08:25:49.264Z,83.79
2023-01-03T08:28:19.833Z,83.61
2023-01-03T08:30:51.956Z,83.65
2023-01-03T08:33:22.581Z,83.64
2023-01-03T08:35:58.049Z,83.61
2023-01-03T08:38:34.547Z,83.50
2023-01-03T08:41:07.679Z,83.68
2023-01-03T08:43:42.940Z,83.55
2023-01-03T08:46:18.596Z,83.59
2023-01-03T08:48:52.133Z,83.32
2023-01-03T08:51:26.873Z,83.27
2023-01-03T08:53:59.567Z,83.12
2023-01-03T08:56:30.744Z,83.02
2023-01-03T08:59:01.587Z,83.11
2023-01-03T09:01:32.313Z,83.14
2023-01-03T09:04:05.198Z,83.11
2023-01-03T09:06:35.861Z,83.11
2023-01-03T09:09:09.039Z,83.26
2023-01-03T09:11:39.924Z,83.27
2023-01-03T09:14:10.821Z,83.45
2023-01-03T09:16:47.048Z,83.36
2023-01-03T09:19:19.938Z,83.47
2023-01-03T09:21:50.724Z,83.51
2023-01-03T09:24:21.170Z,83.66
2023-01-03T09:26:54.708Z,83.71
2023-01-03T09:29:25.563Z,83.69
2023-01-03T09:31:56.169Z,83.77
2023-01-03T09:34:26.863Z,83.70
2023-01-03T09:36:57.338Z,83.80
2023-01-03T09:39:28.268Z,83.75
2023-01-03T09:42:17.530Z,83.70
2023-01-03T09:44:48.505Z,83.41
2023-01-03T09:47:24.140Z,83.43
2023-01-03T09:50:27.669Z,83.25
2023-01-03T09:53:05.363Z,83.23
2023-01-03T09:56:19.924Z,83.28
2023-01-03T09:59:14.052Z,83.06
2023-01-03T10:02:11.629Z,83.18
2023-01-03T10:04:54.617Z,83.15
2023-01-03T10:07:44.267Z,83.14
2023-01-03T10:10:22.948Z,83.00
2023-01-03T10:13:05.142Z,83.03
2023-01-03T10:15:43.571Z,82.91
2023-01-03T10:18:27.659Z,82.75
2023-01-03T10:21:04.866Z,82.72
2023-01-03T10:23:35.849Z,82.65
2023-01-03T10:26:13.143Z,82.77
2023-01-03T10:28:47.092Z,82.92
2023-01-03T10:31:30.960Z,82.95
2023-01-03T10:34:01.992Z,82.89
2023-01-03T10:36:32.378Z,82.89
2023-01-03T10:39:08.373Z,83.03
2023-01-03T10:41:45.419Z,83.24
2023-01-03T10:44:28.918Z,83.39
2023-01-03T10:47:11.386Z,83.25
2023-01-03T10:49:49.032Z,83.48
2023-01-03T10:52:24.788Z,83.67
2023-01-03T10:55:02.549Z,83.45
2023-01-03T10:57:45.257Z,83.20
2023-01-03T11:00:38.897Z,83.18
2023-01-03T11:03:20.523Z,83.18
2023-01-03T11:06:08.411Z,82.88
2023-01-03T11:08:44.375Z,82.85
2023-01-03T11:14:23.126Z,82.36
2023-01-03T11:17:01.639Z,82.60
2023-01-03T11:19:34.398Z,82.34
2023-01-03T11:22:14.539Z,81.88
2023-01-03T11:25:04.448Z,81.25
2023-01-03T11:28:13.711Z,81.11
2023-01-03T11:30:54.791Z,81.02
2023-01-03T11:33:37.097Z,80.80
2023-01-03T11:36:34.055Z,80.78
2023-01-03T11:39:26.403Z,80.57
2023-01-03T11:42:32.341Z,80.04
2023-01-03T11:45:25.830Z,80.21
2023-01-03T11:48:12.570Z,80.19
2023-01-03T11:50:53.489Z,80.06
2023-01-03T11:53:35.726Z,79.99
2023-01-03T11:56:19.527Z,79.79
2023-01-03T11:59:08.249Z,79.76
2023-01-03T12:01:52.428Z,79.42
2023-01-03T12:04:36.555Z,79.59
2023-01-03T12:10:17.852Z,79.82
2023-01-03T12:13:07.093Z,79.84
2023-01-03T12:15:46.539Z,80.11
2023-01-03T12:18:26.322Z,80.01
2023-01-03T12:21:03.488Z,80.01
2023-01-03T12:23:44.353Z,79.88
2023-01-03T12:26:17.184Z,79.58
2023-01-03T12:28:53.433Z,79.36
2023-01-03T12:31:32.406Z,79.30
2023-01-03T12:34:18.259Z,79.11
2023-01-03T12:36:57.570Z,79.03
2023-01-03T12:39:37.956Z,79.15
2023-01-03T12:42:18.560Z,79.28
2023-01-03T12:44:52.790Z,79.16
2023-01-03T12:47:29.865Z,79.10
2023-01-03T12:50:08.278Z,79.02
2023-01-03T12:52:40.637Z,79.04
2023-01-03T12:55:20.638Z,79.16
2023-01-03T12:58:22.267Z,79.20
2023-01-03T13:00:59.705Z,79.09
2023-01-03T13:03:36.421Z,79.13
2023-01-03T13:06:15.086Z,78.98
2023-01-03T13:08:49.484Z,78.94
2023-01-03T13:11:27.881Z,79.19
2023-01-03T13:14:04.593Z,79.35
2023-01-03T13:16:47.131Z,79.39
2023-01-03T13:19:55.185Z,79.22
2023-01-03T13:22:44.566Z,79.37
2023-01-03T13:25:37.122Z,79.64
2023-01-03T13:28:33.111Z,79.69
2023-01-03T13:31:40.615Z,79.65
2023-01-03T13:34:26.334Z,79.58
2023-01-03T13:37:19.236Z,79.29
2023-01-03T13:43:15.878Z,79.32
2023-01-03T13:45:57.608Z,79.52
2023-01-03T13:48:34.414Z,79.53
2023-01-03T13:51:37.590Z,79.57
2023-01-03T13:54:28.205Z,79.64
2023-01-03T13:57:04.975Z,79.62
2023-01-03T13:59:42.718Z,79.58
2023-01-03T14:02:28.561Z,79.51
2023-01-03T14:05:23.200Z,79.39
2023-01-03T14:08:17.626Z,79.59
2023-01-03T14:11:04.052Z,79.38
2023-01-03T14:13:42.414Z,79.25
2023-01-03T14:16:26.014Z,79.32
2023-01-03T14:19:14.937Z,79.24
2023-01-03T14:21:52.959Z,79.24
2023-01-03T14:24:28.486Z,78.92
2023-01-03T14:27:13.093Z,79.05
2023-01-03T14:29:52.701Z,79.29
2023-01-03T14:32:33.688Z,79.14
2023-01-03T14:35:08.478Z,79.20
2023-01-03T14:37:49.529Z,79.26
2023-01-03T14:40:23.510Z,79.28
2023-01-03T14:42:57.010Z,79.28
2023-01-03T14:45:29.957Z,79.61
2023-01-03T14:48:02.660Z,79.65
2023-01-03T14:50:35.326Z,80.05
2023-01-03T14:53:08.564Z,80.12
2023-01-03T14:55:40.269Z,80.29
2023-01-03T14:58:30.892Z,80.25
2023-01-03T15:01:05.073Z,80.26
2023-01-03T15:03:42.907Z,80.34
2023-01-03T15:06:24.308Z,80.30
2023-01-03T15:09:00.325Z,80.35
2023-01-03T15:11:56.692Z,80.26
2023-01-03T15:14:31.689Z,80.22
2023-01-03T15:17:16.456Z,80.44
2023-01-03T15:19:56.095Z,80.54
2023-01-03T15:22:35.204Z,80.54
2023-01-03T15:25:18.455Z,80.81
2023-01-03T15:27:52.669Z,80.96
2023-01-03T15:30:29.605Z,80.98
2023-01-03T15:33:05.527Z,81.19
2023-01-03T15:35:42.241Z,81.22
2023-01-03T15:38:21.569Z,81.41
2023-01-03T15:40:54.992Z,81.31
2023-01-03T15:43:34.013Z,81.17
2023-01-03T15:46:13.421Z,81.17
2023-01-03T15:48:53.936Z,80.97
2023-01-03T15:51:28.310Z,81.01
2023-01-03T15:54:00.235Z,81.20
2023-01-03T15:56:37.503Z,81.24
2023-01-03T15:59:11.608Z,81.08
2023-01-03T16:01:45.004Z,81.09
2023-01-03T16:04:17.946Z,81.37
2023-01-03T16:06:53.200Z,81.62
2023-01-03T16:09:24.955Z,81.70
2023-01-03T16:12:01.068Z,82.00
2023-01-03T16:14:37.960Z,82.10
2023-01-03T16:17:20.788Z,82.34
2023-01-03T16:19:59.846Z,82.33
2023-01-03T16:22:35.121Z,82.49
2023-01-03T16:25:14.999Z,82.68
2023-01-03T16:27:45.707Z,82.49
2023-01-03T16:30:16.270Z,82.86
2023-01-03T16:32:46.817Z,82.93
2023-01-03T16:35:20.449Z,82.88
2023-01-03T16:37:51.310Z,83.06
2023-01-03T16:40:22.561Z,83.00
2023-01-03T16:42:52.990Z,83.04
2023-01-03T16:45:23.863Z,83.21
2023-01-03T16:47:55.029Z,83.01
2023-01-03T16:50:26.213Z,83.01
2023-01-03T16:52:58.143Z,83.12
2023-01-03T16:55:30.825Z,83.19
2023-01-03T16:58:03.623Z,83.05
2023-01-03T17:00:40.177Z,82.83
2023-01-03T17:03:12.620Z,82.76
2023-01-03T17:05:46.591Z,82.73
2023-01-03T17:08:25.051Z,82.85
2023-01-03T17:10:58.371Z,82.80
2023-01-03T17:13:32.716Z,82.83
2023-01-03T17:16:04.996Z,82.98
2023-01-03T17:18:42.475Z,82.78
2023-01-03T17:21:31.711Z,83.05
2023-01-03T17:24:10.231Z,82.93
2023-01-03T17:26:43.730Z,82.98
2023-01-03T17:29:23.666Z,82.96
2023-01-03T17:31:58.266Z,82.96
2023-01-03T17:34:34.274Z,83.19
2023-01-03T17:37:05.439Z,83.20
2023-01-03T17:39:43.987Z,83.21
2023-01-03T17:42:24.800Z,83.40
2023-01-03T17:45:16.471Z,83.40
2023-01-03T17:48:07.161Z,83.51
2023-01-03T17:50:45.459Z,83.76
2023-01-03T17:53:20.191Z,83.78
2023-01-03T17:55:51.206Z,83.71
2023-01-03T17:58:25.917Z,83.54
2023-01-03T18:00:57.362Z,83.62
2023-01-03T18:03:29.196Z,83.84
2023-01-03T18:06:01.798Z,83.82
2023-01-03T18:08:33.562Z,83.72
2023-01-03T18:11:07.457Z,83.87
2023-01-03T18:13:40.038Z,83.91
2023-01-03T18:16:17.164Z,83.93
2023-01-03T18:18:48.083Z,84.22
2023-01-03T18:21:22.328Z,84.34
2023-01-03T18:23:58.006Z,84.38
2023-01-03T18:26:34.793Z,84.21
2023-01-03T18:29:06.077Z,84.10
2023-01-03T18:31:36.591Z,84.12
2023-01-03T18:34:07.928Z,84.29
2023-01-03T18:36:42.727Z,84.20
2023-01-03T18:39:17.509Z,83.84
2023-01-03T18:41:47.924Z,84.04
2023-01-03T18:44:23.054Z,83.99
2023-01-03T18:46:53.948Z,83.88
2023-01-03T18:49:25.596Z,83.87
2023-01-03T18:51:58.246Z,83.63
2023-01-03T18:54:28.846Z,83.63
2023-01-03T18:56:59.600Z,83.30
2023-01-03T18:59:30.409Z,83.47
2023-01-03T19:02:00.837Z,83.28
2023-01-03T19:04:31.584Z,83.48
2023-01-03T19:07:02.008Z,83.48
2023-01-03T19:09:32.779Z,83.74
2023-01-03T19:12:03.435Z,83.74
2023-01-03T19:14:33.814Z,83.61
2023-01-03T19:17:10.244Z,83.71
2023-01-03T19:19:40.660Z,83.68
2023-01-03T19:22:30.075Z,83.64
2023-01-03T19:25:03.581Z,83.70
2023-01-03T19:27:39.322Z,83.62
2023-01-03T19:30:18.637Z,83.56
2023-01-03T19:32:53.521Z,83.49
2023-01-03T19:35:24.679Z,83.45
2023-01-03T19:37:55.131Z,83.29
2023-01-03T19:40:30.995Z,83.54
2023-01-03T19:43:02.356Z,83.36
2023-01-03T19:45:35.229Z,83.47
2023-01-03T19:48:17.011Z,83.58
2023-01-03T19:50:47.415Z,83.53
2023-01-03T19:53:18.785Z,83.35
2023-01-03T19:55:51.891Z,83.53
2023-01-03T19:58:26.423Z,83.59
2023-01-03T20:00:57.859Z,83.64
2023-01-03T20:03:32.049Z,83.57
2023-01-03T20:06:03.206Z,83.63
2023-01-03T20:08:33.846Z,83.59
2023-01-03T20:11:04.257Z,83.75
2023-01-03T20:13:35.832Z,83.78
2023-01-03T20:16:07.256Z,83.77
2023-01-03T20:18:40.021Z,83.86
2023-01-03T20:21:22.016Z,83.86
2023-01-03T20:23:55.946Z,84.03
2023-01-03T20:26:29.265Z,84.08
2023-01-03T20:29:01.294Z,84.09
2023-01-03T20:31:32.288Z,84.10
2023-01-03T20:34:06.316Z,84.15
2023-01-03T20:36:42.973Z,84.15
2023-01-03T20:39:25.164Z,84.30
2023-01-03T20:41:59.997Z,84.26
2023-01-03T20:44:33.869Z,84.48
2023-01-03T20:47:04.970Z,84.53
2023-01-03T20:49:36.922Z,84.58
2023-01-03T20:52:07.383Z,84.76
2023-01-03T20:54:38.411Z,84.74
2023-01-03T20:57:16.578Z,84.75
2023-01-03T20:59:47.240Z,84.83
2023-01-03T21:02:18.125Z,84.88
2023-01-03T21:04:48.721Z,85.01
2023-01-03T21:07:49.143Z,85.10
2023-01-03T21:10:25.792Z,85.18
2023-01-03T21:12:56.171Z,85.18
2023-01-03T21:15:26.502Z,85.24
2023-01-03T21:17:57.210Z,85.25
2023-01-03T21:20:29.753Z,85.25
2023-01-03T21:23:03.260Z,85.29
2023-01-03T21:25:35.123Z,85.38
2023-01-03T21:28:05.761Z,85.38
2023-01-03T21:30:36.679Z,85.48
2023-01-03T21:33:07.719Z,85.39
2023-01-03T21:35:40.990Z,85.43
2023-01-03T21:38:12.476Z,85.60
2023-01-03T21:40:42.774Z,85.58
2023-01-03T21:43:13.437Z,85.64
2023-01-03T21:45:48.311Z,85.73
2023-01-03T21:48:19.732Z,85.81
2023-01-03T21:50:51.483Z,85.80
2023-01-03T21:53:23.729Z,85.86
2023-01-03T21:55:54.117Z,85.95
2023-01-03T21:58:24.783Z,85.94
2023-01-03T22:00:55.244Z,85.97
2023-01-03T22:03:43.384Z,86.01
2023-01-03T22:06:14.939Z,86.10
2023-01-03T22:08:45.249Z,86.15
2023-01-03T22:11:16.178Z,86.08
2023-01-03T22:13:47.130Z,86.12
2023-01-03T22:16:17.861Z,86.17
2023-01-03T22:18:48.200Z,86.27
2023-01-03T22:21:20.017Z,86.22
2023-01-03T22:23:50.452Z,86.25
2023-01-03T22:26:20.807Z,86.29
2023-01-03T22:28:51.203Z,86.30
2023-01-03T22:31:22.922Z,86.27
2023-01-03T22:33:53.775Z,86.23
2023-01-03T22:36:24.155Z,86.39
2023-01-03T22:38:55.611Z,86.32
2023-01-03T22:41:27.180Z,86.30
2023-01-03T22:43:57.571Z,86.25
2023-01-03T22:46:28.646Z,86.26
2023-01-03T22:48:59.733Z,86.36
2023-01-03T22:51:31.017Z,86.35
2023-01-03T22:54:01.836Z,86.46
2023-01-03T22:56:32.425Z,86.43
2023-01-03T22:59:03.688Z,86.46
2023-01-03T23:01:34.518Z,86.35
2023-01-03T23:04:06.692Z,86.53
2023-01-03T23:06:38.109Z,86.46
2023-01-03T23:09:08.721Z,86.50
2023-01-03T23:11:56.869Z,86.36
2023-01-03T23:14:28.523Z,86.28
2023-01-03T23:17:18.988Z,86.25
2023-01-03T23:19:49.381Z,86.22
2023-01-03T23:22:21.259Z,86.22
2023-01-03T23:24:51.976Z,86.05
2023-01-03T23:27:27.064Z,86.02
2023-01-03T23:29:57.686Z,85.99
2023-01-03T23:32:28.363Z,85.89
2023-01-03T23:34:58.782Z,85.86
2023-01-03T23:37:29.295Z,85.78
2023-01-03T23:40:00.066Z,85.74
2023-01-03T23:42:31.003Z,85.66
2023-01-03T23:45:02.070Z,85.58
2023-01-03T23:47:32.477Z,85.63
2023-01-03T23:50:02.857Z,85.62
2023-01-03T23:52:35.565Z,85.59
2023-01-03T23:55:12.353Z,85.57
2023-01-03T23:57:43.613Z,85.63
